createdAt,value
2022-10-22T00:01:46.833Z,98544.72
2022-10-22T00:04:15.722Z,98538.84
2022-10-22T00:06:45.285Z,98538.56
2022-10-22T00:09:14.049Z,98541.25
2022-10-22T00:11:44.762Z,98532.13
2022-10-22T00:14:13.992Z,98538.28
2022-10-22T00:16:42.662Z,98540.47
2022-10-22T00:19:13.362Z,98538.03
2022-10-22T00:21:42.081Z,98530.25
2022-10-22T00:24:10.811Z,98525.38
2022-10-22T00:26:40.451Z,98510.06
2022-10-22T00:29:10.566Z,98514.31
2022-10-22T00:31:39.201Z,98507.66
2022-10-22T00:34:07.868Z,98513.72
2022-10-22T00:36:36.518Z,98522.06
2022-10-22T00:39:05.308Z,98522.00
2022-10-22T00:41:33.915Z,98524.69
2022-10-22T00:44:06.212Z,98518.88
2022-10-22T00:46:36.287Z,98516.50
2022-10-22T00:49:06.062Z,98515.63
2022-10-22T00:51:37.321Z,98515.72
2022-10-22T00:54:10.210Z,98515.72
2022-10-22T00:56:39.540Z,98517.09
2022-10-22T01:01:45.270Z,98530.03
2022-10-22T01:04:14.095Z,98532.47
2022-10-22T01:06:42.911Z,98522.28
2022-10-22T01:09:29.266Z,98523.91
2022-10-22T01:12:09.965Z,98522.53
2022-10-22T01:14:59.294Z,98516.66
2022-10-22T01:17:42.568Z,98522.31
2022-10-22T01:20:35.312Z,98522.84
2022-10-22T01:23:27.069Z,98515.34
2022-10-22T01:26:05.430Z,98519.91
2022-10-22T01:29:01.791Z,98528.22
2022-10-22T01:31:39.506Z,98525.78
2022-10-22T01:34:11.102Z,98525.53
2022-10-22T01:36:41.403Z,98518.59
2022-10-22T01:39:12.231Z,98521.50
2022-10-22T01:41:45.534Z,98518.59
2022-10-22T01:44:28.923Z,98515.34
2022-10-22T01:47:12.842Z,98510.28
2022-10-22T01:50:24.196Z,98512.22
2022-10-22T01:53:21.206Z,98510.06
2022-10-22T01:56:07.811Z,98511.69
2022-10-22T01:58:53.812Z,98512.22
2022-10-22T02:01:37.950Z,98515.94
2022-10-22T02:04:16.924Z,98513.25
2022-10-22T02:06:49.746Z,98511.69
2022-10-22T02:09:23.812Z,98513.59
2022-10-22T02:11:54.068Z,98507.97
2022-10-22T02:14:24.437Z,98510.38
2022-10-22T02:16:54.954Z,98517.13
2022-10-22T02:19:29.473Z,98500.22
2022-10-22T02:21:58.441Z,98496.19
2022-10-22T02:24:27.684Z,98495.66
2022-10-22T02:27:07.587Z,98497.28
2022-10-22T02:29:42.684Z,98500.50
2022-10-22T02:32:21.418Z,98497.06
2022-10-22T02:34:52.308Z,98493.56
2022-10-22T02:37:22.003Z,98497.34
2022-10-22T02:39:52.848Z,98496.03
2022-10-22T02:42:21.513Z,98504.06
2022-10-22T02:44:50.182Z,98497.63
2022-10-22T02:47:20.273Z,98492.25
2022-10-22T02:49:48.950Z,98500.31
2022-10-22T02:52:17.593Z,98499.25
2022-10-22T02:54:46.241Z,98494.69
2022-10-22T02:57:14.944Z,98494.69
2022-10-22T02:59:43.657Z,98504.94
2022-10-22T03:02:12.292Z,98501.69
2022-10-22T03:04:43.783Z,98507.34
2022-10-22T03:07:12.725Z,98504.94
2022-10-22T03:09:41.378Z,98508.69
2022-10-22T03:12:10.519Z,98502.25
2022-10-22T03:14:39.122Z,98497.41
2022-10-22T03:17:07.834Z,98503.91
2022-10-22T03:19:36.501Z,98495.84
2022-10-22T03:22:11.539Z,98486.72
2022-10-22T03:24:43.682Z,98513.31
2022-10-22T03:27:16.255Z,98508.72
2022-10-22T03:29:47.024Z,98499.38
2022-10-22T03:32:15.918Z,98512.00
2022-10-22T03:34:44.516Z,98516.84
2022-10-22T03:37:14.766Z,98519.28
2022-10-22T03:39:43.810Z,98526.00
2022-10-22T03:42:13.651Z,98527.06
2022-10-22T03:44:42.521Z,98524.13
2022-10-22T03:47:11.482Z,98530.31
2022-10-22T03:49:40.145Z,98524.13
2022-10-22T03:52:10.176Z,98525.47
2022-10-22T03:54:42.294Z,98530.31
2022-10-22T03:57:12.208Z,98534.06
2022-10-22T03:59:44.647Z,98532.44
2022-10-22T04:02:14.845Z,98531.66
2022-10-22T04:04:43.576Z,98523.81
2022-10-22T04:07:12.256Z,98521.13
2022-10-22T04:09:42.422Z,98514.72
2022-10-22T04:12:11.401Z,98517.63
2022-10-22T04:14:39.993Z,98520.59
2022-10-22T04:17:08.664Z,98523.28
2022-10-22T04:19:37.291Z,98526.50
2022-10-22T04:22:06.022Z,98532.41
2022-10-22T04:24:34.892Z,98545.03
2022-10-22T04:27:05.342Z,98539.66
2022-10-22T04:29:34.038Z,98544.22
2022-10-22T04:32:02.705Z,98530.22
2022-10-22T04:34:31.612Z,98530.22
2022-10-22T04:37:00.261Z,98537.25
2022-10-22T04:39:29.014Z,98546.88
2022-10-22T04:41:57.710Z,98528.59
2022-10-22T04:44:27.778Z,98529.13
2022-10-22T04:46:56.518Z,98536.13
2022-10-22T04:49:25.251Z,98533.97
2022-10-22T04:51:54.302Z,98520.56
2022-10-22T04:54:23.255Z,98516.78
2022-10-22T04:56:51.933Z,98521.13
2022-10-22T04:59:20.567Z,98525.38
2022-10-22T05:01:50.592Z,98524.28
2022-10-22T05:04:20.545Z,98532.09
2022-10-22T05:06:49.207Z,98526.44
2022-10-22T05:09:21.342Z,98520.50
2022-10-22T05:11:53.242Z,98519.47
2022-10-22T05:14:25.414Z,98529.09
2022-10-22T05:16:55.952Z,98523.72
2022-10-22T05:19:28.174Z,98540.38
2022-10-22T05:22:00.791Z,98538.28
2022-10-22T05:24:31.595Z,98544.69
2022-10-22T05:27:01.529Z,98543.63
2022-10-22T05:29:30.296Z,98544.19
2022-10-22T05:32:00.380Z,98553.81
2022-10-22T05:34:28.987Z,98554.38
2022-10-22T05:36:57.636Z,98558.63
2022-10-22T05:39:26.641Z,98561.88
2022-10-22T05:41:55.277Z,98557.63
2022-10-22T05:44:23.861Z,98555.47
2022-10-22T05:46:52.795Z,98561.91
2022-10-22T05:49:22.970Z,98556.25
2022-10-22T05:51:51.557Z,98561.91
2022-10-22T05:54:22.226Z,98565.13
2022-10-22T05:56:51.100Z,98568.41
2022-10-22T05:59:19.854Z,98576.72
2022-10-22T06:01:48.728Z,98574.03
2022-10-22T06:04:18.127Z,98575.13
2022-10-22T06:06:51.991Z,98589.13
2022-10-22T06:09:26.190Z,98595.84
2022-10-22T06:11:56.247Z,98597.19
2022-10-22T06:14:26.074Z,98595.31
2022-10-22T06:16:55.975Z,98588.09
2022-10-22T06:19:27.220Z,98594.28
2022-10-22T06:21:57.569Z,98598.06
2022-10-22T06:24:26.439Z,98598.06
2022-10-22T06:26:55.055Z,98587.06
2022-10-22T06:29:24.429Z,98588.41
2022-10-22T06:31:53.991Z,98603.19
2022-10-22T06:34:23.059Z,98602.97
2022-10-22T06:36:52.341Z,98602.16
2022-10-22T06:39:22.558Z,98610.47
2022-10-22T06:41:51.843Z,98615.34
2022-10-22T06:44:24.666Z,98620.19
2022-10-22T06:46:54.316Z,98625.06
2022-10-22T06:49:23.235Z,98633.66
2022-10-22T06:51:53.093Z,98628.81
2022-10-22T06:54:24.872Z,98629.41
2022-10-22T06:56:55.439Z,98633.97
2022-10-22T06:59:24.549Z,98641.22
2022-10-22T07:01:53.462Z,98646.91
2022-10-22T07:04:22.730Z,98646.66
2022-10-22T07:06:52.240Z,98645.06
2022-10-22T07:09:22.799Z,98642.94
2022-10-22T07:11:51.740Z,98657.75
2022-10-22T07:14:20.611Z,98660.97
2022-10-22T07:16:49.854Z,98667.97
2022-10-22T07:19:19.069Z,98673.66
2022-10-22T07:21:48.042Z,98684.41
2022-10-22T07:24:20.149Z,98691.94
2022-10-22T07:26:50.649Z,98689.47
2022-10-22T07:29:23.247Z,98693.25
2022-10-22T07:31:52.435Z,98698.94
2022-10-22T07:34:21.222Z,98707.50
2022-10-22T07:36:50.060Z,98706.69
2022-10-22T07:39:42.329Z,98719.00
2022-10-22T07:42:12.707Z,98713.03
2022-10-22T07:44:41.703Z,98713.84
2022-10-22T07:47:10.485Z,98733.25
2022-10-22T07:49:39.315Z,98731.66
2022-10-22T07:52:08.967Z,98724.69
2022-10-22T07:54:37.705Z,98731.69
2022-10-22T07:57:06.437Z,98742.44
2022-10-22T07:59:36.571Z,98741.94
2022-10-22T08:02:05.650Z,98744.69
2022-10-22T08:04:58.123Z,98744.72
2022-10-22T08:07:29.163Z,98741.00
2022-10-22T08:09:59.223Z,98747.72
2022-10-22T08:12:32.854Z,98755.84
2022-10-22T08:15:04.216Z,98757.19
2022-10-22T08:17:33.897Z,98759.38
2022-10-22T08:20:03.366Z,98753.47
2022-10-22T08:22:33.451Z,98756.16
2022-10-22T08:25:02.372Z,98748.41
2022-10-22T08:27:31.065Z,98752.97
2022-10-22T08:30:02.126Z,98754.03
2022-10-22T08:32:31.058Z,98746.53
2022-10-22T08:35:00.839Z,98749.50
2022-10-22T08:37:29.471Z,98749.28
2022-10-22T08:39:58.219Z,98746.59
2022-10-22T08:43:10.415Z,98742.59
2022-10-22T08:45:48.771Z,98742.88
2022-10-22T08:48:40.215Z,98739.13
2022-10-22T08:51:18.512Z,98745.59
2022-10-22T08:54:15.966Z,98745.84
2022-10-22T08:56:51.948Z,98752.34
2022-10-22T08:59:27.957Z,98751.00
2022-10-22T09:01:58.285Z,98759.06
2022-10-22T09:05:03.707Z,98745.13
2022-10-22T09:07:32.860Z,98742.97
2022-10-22T09:10:05.145Z,98746.19
2022-10-22T09:12:34.301Z,98751.88
2022-10-22T09:15:03.487Z,98750.81
2022-10-22T09:17:46.593Z,98757.59
2022-10-22T09:20:28.646Z,98756.28
2022-10-22T09:23:14.093Z,98753.09
2022-10-22T09:25:46.958Z,98750.97
2022-10-22T09:28:16.242Z,98753.09
2022-10-22T09:30:46.253Z,98758.81
2022-10-22T09:33:22.744Z,98750.75
2022-10-22T09:35:57.434Z,98753.47
2022-10-22T09:38:29.719Z,98755.13
2022-10-22T09:41:03.827Z,98752.97
2022-10-22T09:43:35.117Z,98753.53
2022-10-22T09:46:07.529Z,98750.31
2022-10-22T09:48:42.583Z,98755.16
2022-10-22T09:51:20.936Z,98756.25
2022-10-22T09:53:58.983Z,98759.50
2022-10-22T09:56:30.563Z,98758.13
2022-10-22T09:58:59.969Z,98767.84
2022-10-22T10:01:33.363Z,98767.59
2022-10-22T10:04:09.782Z,98769.78
2022-10-22T10:06:43.057Z,98775.69
2022-10-22T10:09:19.035Z,98782.16
2022-10-22T10:11:54.902Z,98777.84
2022-10-22T10:14:41.427Z,98776.22
2022-10-22T10:17:24.002Z,98775.13
2022-10-22T10:20:11.004Z,98773.53
2022-10-22T10:23:03.138Z,98784.88
2022-10-22T10:25:51.119Z,98781.38
2022-10-22T10:28:48.236Z,98787.84
2022-10-22T10:31:34.138Z,98775.97
2022-10-22T10:34:18.759Z,98784.31
2022-10-22T10:37:05.986Z,98783.25
2022-10-22T10:39:49.491Z,98786.50
2022-10-22T10:42:28.714Z,98789.72
2022-10-22T10:45:13.918Z,98784.84
2022-10-22T10:48:18.669Z,98785.69
2022-10-22T10:51:04.567Z,98785.13
2022-10-22T10:53:56.254Z,98795.13
2022-10-22T10:56:41.308Z,98793.22
2022-10-22T10:59:23.612Z,98800.56
2022-10-22T11:02:15.214Z,98798.91
2022-10-22T11:05:36.795Z,98797.28
2022-10-22T11:08:14.100Z,98808.09
2022-10-22T11:10:50.011Z,98808.63
2022-10-22T11:13:32.363Z,98811.31
2022-10-22T11:16:12.809Z,98805.38
2022-10-22T11:18:49.481Z,98802.69
2022-10-22T11:21:30.668Z,98800.00
2022-10-22T11:24:12.991Z,98804.31
2022-10-22T11:26:52.738Z,98807.53
2022-10-22T11:29:30.720Z,98802.13
2022-10-22T11:32:04.688Z,98812.09
2022-10-22T11:34:44.592Z,98804.25
2022-10-22T11:37:16.374Z,98798.84
2022-10-22T11:39:51.766Z,98796.66
2022-10-22T11:42:24.854Z,98800.44
2022-10-22T11:45:03.517Z,98803.63
2022-10-22T11:47:36.977Z,98804.69
2022-10-22T11:50:22.982Z,98799.78
2022-10-22T11:53:05.995Z,98797.06
2022-10-22T11:55:49.218Z,98807.88
2022-10-22T11:58:42.330Z,98800.31
2022-10-22T12:01:26.440Z,98795.69
2022-10-22T12:04:18.358Z,98799.19
2022-10-22T12:07:02.115Z,98797.00
2022-10-22T12:09:35.348Z,98792.19
2022-10-22T12:12:18.091Z,98794.88
2022-10-22T12:14:58.415Z,98796.50
2022-10-22T12:17:30.350Z,98791.06
2022-10-22T12:20:08.890Z,98797.28
2022-10-22T12:22:40.293Z,98795.16
2022-10-22T12:25:22.290Z,98792.19
2022-10-22T12:27:55.135Z,98796.53
2022-10-22T12:30:30.676Z,98789.00
2022-10-22T12:33:01.942Z,98799.03
2022-10-22T12:35:34.574Z,98791.75
2022-10-22T12:38:10.172Z,98793.94
2022-10-22T12:40:45.900Z,98791.25
2022-10-22T12:43:20.481Z,98787.50
2022-10-22T12:45:53.026Z,98785.91
2022-10-22T12:48:26.533Z,98794.00
2022-10-22T12:50:59.874Z,98789.94
2022-10-22T12:53:33.615Z,98788.09
2022-10-22T12:56:06.596Z,98792.69
2022-10-22T12:58:42.546Z,98793.50
2022-10-22T13:01:18.127Z,98796.75
2022-10-22T13:03:50.918Z,98795.41
2022-10-22T13:06:27.508Z,98799.19
2022-10-22T13:09:14.914Z,98802.69
2022-10-22T13:11:54.311Z,98796.50
2022-10-22T13:14:30.722Z,98801.59
2022-10-22T13:17:14.876Z,98798.38
2022-10-22T13:20:05.471Z,98808.63
2022-10-22T13:22:37.176Z,98813.22
2022-10-22T13:25:24.484Z,98812.38
2022-10-22T13:27:57.022Z,98811.31
2022-10-22T13:30:29.009Z,98814.03
2022-10-22T13:33:02.894Z,98812.69
2022-10-22T13:35:35.808Z,98808.09
2022-10-22T13:38:07.515Z,98811.31
2022-10-22T13:40:36.125Z,98816.44
2022-10-22T13:43:04.728Z,98821.59
2022-10-22T13:45:34.674Z,98821.03
2022-10-22T13:48:07.161Z,98819.41
2022-10-22T13:50:36.651Z,98823.72
2022-10-22T13:53:06.074Z,98816.19
2022-10-22T13:55:34.732Z,98821.59
2022-10-22T13:58:12.010Z,98812.94
2022-10-22T14:00:45.143Z,98817.81
2022-10-22T14:03:19.367Z,98822.66
2022-10-22T14:05:49.748Z,98825.09
2022-10-22T14:08:22.052Z,98820.50
2022-10-22T14:10:50.708Z,98823.75
2022-10-22T14:13:21.803Z,98830.19
2022-10-22T14:15:53.677Z,98826.97
2022-10-22T14:18:28.698Z,98822.13
2022-10-22T14:21:01.307Z,98823.72
2022-10-22T14:23:33.519Z,98824.81
2022-10-22T14:26:04.093Z,98829.41
2022-10-22T14:28:40.996Z,98836.16
2022-10-22T14:31:14.956Z,98826.69
2022-10-22T14:33:45.167Z,98832.34
2022-10-22T14:36:16.011Z,98836.69
2022-10-22T14:38:47.022Z,98838.81
2022-10-22T14:41:22.099Z,98839.38
2022-10-22T14:43:52.137Z,98844.50
2022-10-22T14:46:21.519Z,98846.66
2022-10-22T14:48:52.682Z,98847.97
2022-10-22T14:51:24.782Z,98842.06
2022-10-22T14:53:53.810Z,98848.81
2022-10-22T14:56:22.487Z,98851.22
2022-10-22T14:58:51.828Z,98855.25
2022-10-22T15:01:21.053Z,98854.44
2022-10-22T15:03:51.167Z,98858.22
2022-10-22T15:06:20.354Z,98863.63
2022-10-22T15:08:50.246Z,98863.03
2022-10-22T15:11:19.024Z,98855.22
2022-10-22T15:19:36.114Z,98872.19
2022-10-22T15:22:03.629Z,98871.09
2022-10-22T15:24:30.855Z,98872.41
2022-10-22T15:26:58.313Z,98876.19
2022-10-22T15:29:25.709Z,98880.50
2022-10-22T15:31:57.163Z,98887.50
2022-10-22T15:34:29.425Z,98884.50
2022-10-22T15:37:01.699Z,98893.66
2022-10-22T15:39:31.016Z,98899.31
2022-10-22T15:42:00.372Z,98896.88
2022-10-22T15:44:31.876Z,98904.41
2022-10-22T15:47:02.625Z,98906.78
2022-10-22T15:49:32.354Z,98911.03
2022-10-22T15:52:02.978Z,98922.00
2022-10-22T15:54:32.861Z,98924.16
2022-10-22T15:57:08.730Z,98922.53
2022-10-22T15:59:37.922Z,98925.78
2022-10-22T16:02:07.494Z,98928.47
2022-10-22T16:04:36.203Z,98926.56
2022-10-22T16:07:06.310Z,98928.66
2022-10-22T16:09:34.904Z,98927.28
2022-10-22T16:12:03.480Z,98934.81
2022-10-22T16:14:32.297Z,98927.00
2022-10-22T16:17:01.849Z,98945.50
2022-10-22T16:19:31.294Z,98939.50
2022-10-22T16:22:02.303Z,98942.91
2022-10-22T16:24:32.610Z,98949.31
2022-10-22T16:27:01.208Z,98953.63
2022-10-22T16:29:31.677Z,98960.34
2022-10-22T16:32:02.013Z,98957.94
2022-10-22T16:34:31.636Z,98962.50
2022-10-22T16:37:01.449Z,98969.34
2022-10-22T16:44:28.414Z,98974.13
2022-10-22T16:46:55.891Z,98982.72
2022-10-22T16:49:23.456Z,98979.97
2022-10-22T16:51:51.837Z,98976.41
2022-10-22T16:54:21.160Z,98980.44
2022-10-22T16:56:49.329Z,98979.97
2022-10-22T16:59:18.579Z,98993.34
2022-10-22T17:01:51.332Z,98995.44
2022-10-22T17:04:20.668Z,98997.47
2022-10-22T17:06:49.625Z,98999.75
2022-10-22T17:09:18.540Z,99005.75
2022-10-22T17:11:47.514Z,99003.34
2022-10-22T17:14:16.352Z,99009.53
2022-10-22T17:16:48.975Z,99007.28
2022-10-22T17:19:19.374Z,99009.56
2022-10-22T17:21:48.921Z,99011.63
2022-10-22T17:24:20.349Z,99015.88
2022-10-22T17:26:49.333Z,99017.28
2022-10-22T17:29:18.610Z,99019.22
2022-10-22T17:31:48.773Z,99023.47
2022-10-22T17:34:20.605Z,99025.09
2022-10-22T17:36:49.377Z,99026.41
2022-10-22T17:39:19.750Z,99033.44
2022-10-22T17:41:48.576Z,99037.19
2022-10-22T17:44:19.224Z,99041.41
2022-10-22T17:46:49.718Z,99041.03
2022-10-22T17:49:21.561Z,99041.91
2022-10-22T17:51:50.779Z,99033.94
2022-10-22T17:54:20.059Z,99042.56
2022-10-22T17:56:49.722Z,99048.28
2022-10-22T17:59:20.603Z,99057.25
2022-10-22T18:01:54.754Z,99066.84
2022-10-22T18:04:27.623Z,99067.81
2022-10-22T18:09:32.743Z,99065.28
2022-10-22T18:12:00.301Z,99075.47
2022-10-22T18:14:28.468Z,99075.47
2022-10-22T18:16:56.594Z,99080.50
2022-10-22T18:19:24.249Z,99078.09
2022-10-22T18:21:52.542Z,99073.69
2022-10-22T18:27:00.182Z,99081.91
2022-10-22T18:29:28.309Z,99071.00
2022-10-22T18:31:57.242Z,99073.69
2022-10-22T18:34:25.295Z,99076.59
2022-10-22T18:36:53.705Z,99079.06
2022-10-22T18:39:21.936Z,99077.09
2022-10-22T18:41:49.502Z,99078.41
2022-10-22T18:46:56.499Z,99079.28
2022-10-22T18:49:25.312Z,99083.09
2022-10-22T18:51:53.079Z,99080.16
2022-10-22T18:54:23.643Z,99075.94
2022-10-22T18:56:52.690Z,99078.84
2022-10-22T18:59:26.348Z,99080.56
2022-10-22T19:01:59.846Z,99075.91
2022-10-22T19:04:33.519Z,99073.78
2022-10-22T19:07:02.375Z,99077.88
2022-10-22T19:09:31.713Z,99083.56
2022-10-22T19:12:01.697Z,99078.16
2022-10-22T19:14:36.204Z,99078.84
2022-10-22T19:17:06.446Z,99083.06
2022-10-22T19:19:36.135Z,99087.13
2022-10-22T19:22:05.575Z,99090.25
2022-10-22T19:24:36.982Z,99089.75
2022-10-22T19:27:06.338Z,99094.44
2022-10-22T19:29:35.831Z,99091.75
2022-10-22T19:34:40.001Z,99102.91
2022-10-22T19:37:08.965Z,99101.47
2022-10-22T19:39:38.240Z,99098.56
2022-10-22T19:42:07.099Z,99105.47
2022-10-22T19:44:36.224Z,99111.88
2022-10-22T19:47:07.030Z,99115.00
2022-10-22T19:49:36.395Z,99118.34
2022-10-22T19:52:05.747Z,99105.81
2022-10-22T19:54:34.486Z,99110.75
2022-10-22T19:59:32.381Z,99106.97
2022-10-22T20:02:01.701Z,99105.75
2022-10-22T20:09:33.941Z,99103.06
2022-10-22T20:12:02.294Z,99106.72
2022-10-22T20:14:30.170Z,99112.91
2022-10-22T20:16:59.387Z,99120.25
2022-10-22T20:19:29.417Z,99115.59
2022-10-22T20:24:28.804Z,99114.69
2022-10-22T20:26:59.334Z,99126.75
2022-10-22T20:29:28.411Z,99136.75
2022-10-22T20:31:57.079Z,99136.44
2022-10-22T20:34:25.699Z,99147.63
2022-10-22T20:36:54.328Z,99142.09
2022-10-22T20:39:23.029Z,99149.66
2022-10-22T20:41:52.097Z,99139.97
2022-10-22T20:44:22.190Z,99148.03
2022-10-22T20:46:52.682Z,99145.66
2022-10-22T20:49:21.896Z,99144.59
2022-10-22T20:51:50.517Z,99143.94
2022-10-22T20:54:19.253Z,99143.09
2022-10-22T20:56:49.132Z,99139.13
2022-10-22T20:59:18.349Z,99132.59
2022-10-22T21:01:50.911Z,99145.84
2022-10-22T21:04:21.162Z,99137.19
2022-10-22T21:06:50.526Z,99140.47
2022-10-22T21:09:19.265Z,99142.09
2022-10-22T21:11:48.460Z,99142.09
2022-10-22T21:14:20.362Z,99145.69
2022-10-22T21:16:52.301Z,99148.84
2022-10-22T21:19:23.033Z,99145.50
2022-10-22T21:21:52.006Z,99149.69
2022-10-22T21:24:24.639Z,99155.97
2022-10-22T21:26:54.317Z,99153.28
2022-10-22T21:29:23.285Z,99157.41
2022-10-22T21:31:54.507Z,99157.88
2022-10-22T21:34:23.200Z,99160.81
2022-10-22T21:36:52.935Z,99160.66
2022-10-22T21:39:21.635Z,99162.44
2022-10-22T21:41:50.254Z,99154.38
2022-10-22T21:44:18.883Z,99158.59
2022-10-22T21:46:47.541Z,99149.84
2022-10-22T21:49:17.589Z,99159.44
2022-10-22T21:51:46.349Z,99166.44
2022-10-22T21:54:15.061Z,99159.56
2022-10-22T21:56:43.718Z,99156.06
2022-10-22T21:59:12.314Z,99155.44
2022-10-22T22:01:40.994Z,99156.75
2022-10-22T22:04:09.744Z,99152.91
2022-10-22T22:06:40.361Z,99151.97
2022-10-22T22:09:09.024Z,99154.41
2022-10-22T22:11:37.895Z,99155.25
2022-10-22T22:14:06.480Z,99157.09
2022-10-22T22:16:36.047Z,99157.81
2022-10-22T22:19:08.239Z,99156.50
2022-10-22T22:21:41.471Z,99156.28
2022-10-22T22:24:13.856Z,99158.94
2022-10-22T22:26:42.721Z,99158.38
2022-10-22T22:29:12.324Z,99150.91
2022-10-22T22:31:41.184Z,99153.03
2022-10-22T22:34:13.738Z,99153.59
2022-10-22T22:36:46.656Z,99156.66
2022-10-22T22:39:19.756Z,99159.47
2022-10-22T22:41:49.381Z,99164.56
2022-10-22T22:44:18.513Z,99162.13
2022-10-22T22:46:47.184Z,99157.34
2022-10-22T22:49:16.108Z,99157.94
2022-10-22T22:51:46.157Z,99154.47
2022-10-22T22:54:14.740Z,99149.91
2022-10-22T22:56:43.379Z,99154.91
2022-10-22T22:59:12.834Z,99156.19
2022-10-22T23:01:41.560Z,99154.22
2022-10-22T23:04:16.451Z,99157.03
2022-10-22T23:06:47.556Z,99150.16
2022-10-22T23:11:52.146Z,99151.78
2022-10-22T23:14:21.882Z,99148.50
2022-10-22T23:16:53.588Z,99148.03
2022-10-22T23:19:24.258Z,99147.47
2022-10-22T23:21:57.282Z,99164.91
2022-10-22T23:24:30.030Z,99153.50
2022-10-22T23:27:03.999Z,99154.19
2022-10-22T23:29:36.962Z,99158.50
2022-10-22T23:32:14.214Z,99156.44
2022-10-22T23:34:43.028Z,99159.91
2022-10-22T23:37:13.942Z,99160.34
2022-10-22T23:39:42.509Z,99165.59
2022-10-22T23:42:11.081Z,99166.88
2022-10-22T23:44:39.655Z,99176.41
2022-10-22T23:47:08.343Z,99163.13
2022-10-22T23:49:36.950Z,99168.75
2022-10-22T23:52:05.902Z,99170.84
2022-10-22T23:54:35.977Z,99167.69
2022-10-22T23:57:04.891Z,99156.84
2022-10-22T23:59:33.480Z,99161.53
